Angelus Oaks, California
Current Conditions -  °F | °C
As of 2:55 AM on Friday 19 Dec 2014 (Local Time) from KL35 Reporting Station
Overcast Overcast  
Wind Chill: 19°   Ceiling: 100
Heat Index: 19°   Visibility: 10mi
Dew Point: 18°   Wind: 0mph
Humidity: 93%   Direction: NA
Pressure: 30.22"   Gusts: NA
Location:  34.15°N, 116.98°W
Report Text: KL35 191055Z AUTO 00000KT 10SM OVC001 M07/M08 A3022 RMK AO2
Loading
Personal Weather Stations






























Interactive Weather Map New forecast layout! Learn more

10-Day Weather Forecast

Advertisements
Track Severe Weather on mobile